createdAt,value
2017-07-30T00:00:55.090Z,100048
2017-07-30T00:03:23.387Z,100047
2017-07-30T00:05:51.629Z,100052
2017-07-30T00:08:20.623Z,100048
2017-07-30T00:10:49.671Z,100038
2017-07-30T00:13:17.898Z,100048
2017-07-30T00:15:46.125Z,100053
2017-07-30T00:18:14.371Z,100050
2017-07-30T00:20:42.665Z,100048
2017-07-30T00:23:10.882Z,100052
2017-07-30T00:26:07.088Z,100048
2017-07-30T00:28:35.319Z,100047
2017-07-30T00:31:03.545Z,100044
2017-07-30T00:33:31.829Z,100047
2017-07-30T00:36:00.064Z,100041
2017-07-30T00:38:28.292Z,100039
2017-07-30T00:40:57.354Z,100039
2017-07-30T00:43:25.577Z,100041
2017-07-30T00:45:53.798Z,100038
2017-07-30T00:48:22.090Z,100038
2017-07-30T00:50:50.314Z,100043
2017-07-30T00:53:39.560Z,100037
2017-07-30T00:56:08.533Z,100038
2017-07-30T00:58:36.772Z,100039
2017-07-30T01:01:05.070Z,100035
2017-07-30T01:03:33.295Z,100044
2017-07-30T01:06:01.518Z,100040
2017-07-30T01:08:29.774Z,100031
2017-07-30T01:10:58.070Z,100025
2017-07-30T01:13:26.304Z,100025
2017-07-30T01:15:54.542Z,100027
2017-07-30T01:18:22.824Z,100025
2017-07-30T01:21:09.126Z,100028
2017-07-30T01:23:38.124Z,100030
2017-07-30T01:26:06.364Z,100035
2017-07-30T01:28:35.015Z,100027
2017-07-30T01:31:03.254Z,100037
2017-07-30T01:33:32.242Z,100029
2017-07-30T01:36:08.839Z,100032
2017-07-30T01:38:37.081Z,100029
2017-07-30T01:41:06.082Z,100026
2017-07-30T01:43:35.145Z,100021
2017-07-30T01:46:03.376Z,100024
2017-07-30T01:48:31.616Z,100014
2017-07-30T01:51:00.683Z,100014
2017-07-30T01:53:28.916Z,100008
2017-07-30T01:55:57.137Z,100012
2017-07-30T01:58:25.431Z,100020
2017-07-30T02:00:53.661Z,100016
2017-07-30T02:03:21.885Z,100018
2017-07-30T02:05:50.908Z,100017
2017-07-30T02:08:19.127Z,100015
2017-07-30T02:10:47.422Z,100014
2017-07-30T02:13:15.641Z,100008
2017-07-30T02:15:43.875Z,100027
2017-07-30T02:18:12.930Z,100021
2017-07-30T02:20:41.148Z,100019
2017-07-30T02:23:10.147Z,100021
2017-07-30T02:25:39.199Z,100015
2017-07-30T02:28:07.427Z,100016
2017-07-30T02:33:36.504Z,100030
2017-07-30T02:36:04.786Z,100037
2017-07-30T02:38:33.005Z,100021
2017-07-30T02:41:01.294Z,100021
2017-07-30T02:43:29.517Z,100023
2017-07-30T02:45:58.504Z,100021
2017-07-30T02:48:26.795Z,100028
2017-07-30T02:50:55.784Z,100021
2017-07-30T02:53:24.766Z,100023
2017-07-30T02:55:53.059Z,100020
2017-07-30T02:58:22.048Z,100019
2017-07-30T03:00:51.044Z,100019
2017-07-30T03:03:20.103Z,100018
2017-07-30T03:05:48.326Z,100007
2017-07-30T03:08:16.544Z,100008
2017-07-30T03:10:44.840Z,100003
2017-07-30T03:13:13.063Z,100005
2017-07-30T03:16:07.490Z,100005
2017-07-30T03:18:35.723Z,100002
2017-07-30T03:21:03.952Z,100003
2017-07-30T03:23:32.586Z,100003
2017-07-30T03:26:00.805Z,100007
2017-07-30T03:28:29.022Z,100011
2017-07-30T03:30:57.284Z,100004
2017-07-30T03:33:26.325Z,100005
2017-07-30T03:35:54.543Z,100006
2017-07-30T03:38:23.594Z,100004
2017-07-30T03:41:08.575Z,100006
2017-07-30T03:43:36.863Z,100001
2017-07-30T03:46:05.082Z,100005
2017-07-30T03:48:33.310Z,100007
2017-07-30T03:51:01.597Z,100005
2017-07-30T03:53:29.836Z,100005
2017-07-30T03:58:58.387Z,100006
2017-07-30T04:01:27.381Z,100012
2017-07-30T04:03:56.375Z,100008
2017-07-30T04:06:24.627Z,100009
2017-07-30T04:09:07.601Z,100012
2017-07-30T04:11:35.824Z,100006
2017-07-30T04:14:04.055Z,100005
2017-07-30T04:16:32.325Z,100009
2017-07-30T04:19:00.621Z,100017
2017-07-30T04:21:28.834Z,100012
2017-07-30T04:24:08.256Z,100010
2017-07-30T04:26:36.466Z,100006
2017-07-30T04:29:04.690Z,100006
2017-07-30T04:31:32.933Z,99999
2017-07-30T04:34:01.205Z,99992
2017-07-30T04:36:29.430Z,99994
2017-07-30T04:39:10.207Z,99996
2017-07-30T04:41:38.417Z,99993
2017-07-30T04:44:06.649Z,99990
2017-07-30T04:46:34.934Z,99985
2017-07-30T04:49:03.164Z,99987
2017-07-30T04:51:31.396Z,99979
2017-07-30T04:54:00.446Z,99986
2017-07-30T04:56:28.668Z,99975
2017-07-30T04:58:56.888Z,99984
2017-07-30T05:01:25.159Z,99978
2017-07-30T05:03:53.381Z,99979
2017-07-30T05:09:23.072Z,99987
2017-07-30T05:11:51.286Z,99979
2017-07-30T05:14:20.266Z,99982
2017-07-30T05:16:48.524Z,99980
2017-07-30T05:19:16.743Z,99971
2017-07-30T05:21:45.808Z,99975
2017-07-30T05:24:14.021Z,99963
2017-07-30T05:26:42.244Z,99960
2017-07-30T05:29:10.514Z,99958
2017-07-30T05:31:38.731Z,99962
2017-07-30T05:34:06.968Z,99960
2017-07-30T05:36:35.259Z,99958
2017-07-30T05:39:03.676Z,99947
2017-07-30T05:41:31.885Z,99954
2017-07-30T05:44:00.166Z,99956
2017-07-30T05:49:29.288Z,99949
2017-07-30T05:51:57.502Z,99954
2017-07-30T05:54:26.478Z,99947
2017-07-30T05:56:54.751Z,99949
2017-07-30T05:59:22.957Z,99949
2017-07-30T06:01:51.191Z,99949
2017-07-30T06:04:19.482Z,99954
2017-07-30T06:06:48.484Z,99946
2017-07-30T06:09:17.461Z,99949
2017-07-30T06:11:45.736Z,99953
2017-07-30T06:14:13.973Z,99945
2017-07-30T06:16:42.215Z,99947
2017-07-30T06:19:10.529Z,99951
2017-07-30T06:21:38.777Z,99936
2017-07-30T06:24:07.006Z,99938
2017-07-30T06:26:35.250Z,99939
2017-07-30T06:29:10.200Z,99932
2017-07-30T06:31:38.483Z,99935
2017-07-30T06:34:06.715Z,99933
2017-07-30T06:36:34.954Z,99933
2017-07-30T06:39:04.015Z,99928
2017-07-30T06:41:32.233Z,99926
2017-07-30T06:44:08.555Z,99936
2017-07-30T06:46:37.073Z,99935
2017-07-30T06:49:06.054Z,99936
2017-07-30T06:51:34.356Z,99933
2017-07-30T06:54:02.587Z,99937
2017-07-30T06:59:31.131Z,99945
2017-07-30T07:01:59.350Z,99934
2017-07-30T07:04:27.580Z,99936
2017-07-30T07:06:55.862Z,99939
2017-07-30T07:09:24.095Z,99930
2017-07-30T07:11:52.409Z,99931
2017-07-30T07:14:20.706Z,99939
2017-07-30T07:16:48.953Z,99943
2017-07-30T07:19:17.207Z,99935
2017-07-30T07:21:45.489Z,99933
2017-07-30T07:24:14.481Z,99925
2017-07-30T07:26:43.483Z,99927
2017-07-30T07:29:11.749Z,99919
2017-07-30T07:31:40.758Z,99924
2017-07-30T07:34:09.051Z,99920
2017-07-30T07:36:37.286Z,99920
2017-07-30T07:39:09.567Z,99919
2017-07-30T07:41:37.818Z,99909
2017-07-30T07:44:06.051Z,99904
2017-07-30T07:46:34.355Z,99905
2017-07-30T07:49:02.607Z,99902
2017-07-30T07:51:30.855Z,99902
2017-07-30T07:54:09.540Z,99896
2017-07-30T07:56:37.778Z,99898
2017-07-30T07:59:05.996Z,99897
2017-07-30T08:01:34.281Z,99899
2017-07-30T08:04:03.288Z,99898
2017-07-30T08:06:32.527Z,99901
2017-07-30T08:09:00.819Z,99891
2017-07-30T08:11:29.046Z,99888
2017-07-30T08:13:57.260Z,99891
2017-07-30T08:16:25.554Z,99882
2017-07-30T08:18:53.798Z,99888
2017-07-30T08:24:22.266Z,99882
2017-07-30T08:26:50.509Z,99876
2017-07-30T08:29:18.764Z,99874
2017-07-30T08:31:47.032Z,99869
2017-07-30T08:34:15.318Z,99870
2017-07-30T08:36:43.548Z,99879
2017-07-30T08:39:11.795Z,99870
2017-07-30T08:41:40.862Z,99867
2017-07-30T08:44:09.080Z,99871
2017-07-30T08:46:38.079Z,99867
2017-07-30T08:49:10.123Z,99860
2017-07-30T08:51:39.112Z,99856
2017-07-30T08:54:07.339Z,99851
2017-07-30T08:56:35.668Z,99845
2017-07-30T08:59:04.729Z,99848
2017-07-30T09:01:32.981Z,99858
2017-07-30T09:07:02.196Z,99852
2017-07-30T09:09:30.484Z,99843
2017-07-30T09:11:58.713Z,99842
2017-07-30T09:14:27.718Z,99840
2017-07-30T09:16:56.032Z,99845
2017-07-30T09:19:24.261Z,99840
2017-07-30T09:21:53.259Z,99835
2017-07-30T09:24:21.680Z,99828
2017-07-30T09:26:49.921Z,99826
2017-07-30T09:29:18.173Z,99828
2017-07-30T09:34:48.098Z,99822
2017-07-30T09:37:17.109Z,99819
2017-07-30T09:39:45.357Z,99813
2017-07-30T09:42:13.667Z,99811
2017-07-30T09:44:41.891Z,99803
2017-07-30T09:47:10.118Z,99803
2017-07-30T09:49:38.367Z,99805
2017-07-30T09:52:07.423Z,99801
2017-07-30T09:54:35.649Z,99807
2017-07-30T09:57:04.634Z,99800
2017-07-30T10:02:34.413Z,99790
2017-07-30T10:05:02.653Z,99792
2017-07-30T10:07:31.714Z,99787
2017-07-30T10:09:59.945Z,99786
2017-07-30T10:12:28.169Z,99787
2017-07-30T10:15:09.839Z,99785
2017-07-30T10:17:38.069Z,99783
2017-07-30T10:20:06.312Z,99788
2017-07-30T10:22:34.620Z,99782
2017-07-30T10:25:02.876Z,99777
2017-07-30T10:30:31.836Z,99763
2017-07-30T10:33:00.089Z,99769
2017-07-30T10:35:28.327Z,99752
2017-07-30T10:37:56.608Z,99759
2017-07-30T10:40:25.644Z,99758
2017-07-30T10:43:08.050Z,99763
2017-07-30T10:45:36.293Z,99754
2017-07-30T10:48:04.514Z,99756
2017-07-30T10:50:32.795Z,99755
2017-07-30T10:53:01.267Z,99748
2017-07-30T10:55:29.498Z,99755
2017-07-30T10:57:57.796Z,99748
2017-07-30T11:00:26.013Z,99739
2017-07-30T11:02:54.829Z,99741
2017-07-30T11:05:23.886Z,99732
2017-07-30T11:07:52.126Z,99730
2017-07-30T11:10:20.370Z,99734
2017-07-30T11:12:49.404Z,99726
2017-07-30T11:15:17.661Z,99727
2017-07-30T11:17:45.957Z,99729
2017-07-30T11:20:14.187Z,99727
2017-07-30T11:23:09.381Z,99716
2017-07-30T11:26:08.019Z,99721
2017-07-30T11:28:36.277Z,99722
2017-07-30T11:31:04.490Z,99714
2017-07-30T11:33:32.796Z,99717
2017-07-30T11:36:01.810Z,99712
2017-07-30T11:41:30.700Z,99712
2017-07-30T11:43:58.932Z,99699
2017-07-30T11:46:27.170Z,99708
2017-07-30T11:48:56.216Z,99704
2017-07-30T11:51:24.462Z,99703
2017-07-30T11:53:52.718Z,99700
2017-07-30T11:56:21.010Z,99695
2017-07-30T11:58:49.275Z,99691
2017-07-30T12:01:17.517Z,99693
2017-07-30T12:03:45.819Z,99687
2017-07-30T12:06:14.881Z,99691
2017-07-30T12:08:43.127Z,99687
2017-07-30T12:11:11.353Z,99682
2017-07-30T12:13:39.660Z,99681
2017-07-30T12:16:07.904Z,99680
2017-07-30T12:18:36.150Z,99677
2017-07-30T12:21:10.657Z,99677
2017-07-30T12:23:38.888Z,99679
2017-07-30T12:26:07.921Z,99674
2017-07-30T12:28:36.225Z,99675
2017-07-30T12:31:04.454Z,99669
2017-07-30T12:33:32.678Z,99670
2017-07-30T12:36:09.094Z,99671
2017-07-30T12:38:37.317Z,99663
2017-07-30T12:41:05.644Z,99672
2017-07-30T12:43:33.943Z,99668
2017-07-30T12:46:02.168Z,99667
2017-07-30T12:48:30.423Z,99661
2017-07-30T12:50:59.492Z,99667
2017-07-30T12:53:27.771Z,99664
2017-07-30T12:55:55.994Z,99659
2017-07-30T12:58:24.315Z,99666
2017-07-30T13:00:52.569Z,99661
2017-07-30T13:03:20.814Z,99665
2017-07-30T13:05:49.106Z,99657
2017-07-30T13:08:17.344Z,99667
2017-07-30T13:10:45.569Z,99666
2017-07-30T13:13:13.868Z,99662
2017-07-30T13:15:42.101Z,99666
2017-07-30T13:18:10.332Z,99661
2017-07-30T13:20:38.624Z,99655
2017-07-30T13:23:06.852Z,99657
2017-07-30T13:25:35.102Z,99659
2017-07-30T13:28:03.401Z,99652
2017-07-30T13:30:31.639Z,99651
2017-07-30T13:32:59.875Z,99650
2017-07-30T13:35:28.185Z,99645
2017-07-30T13:37:57.203Z,99640
2017-07-30T13:40:25.447Z,99642
2017-07-30T13:42:53.695Z,99642
2017-07-30T13:48:23.030Z,99637
2017-07-30T13:50:51.263Z,99635
2017-07-30T13:53:19.566Z,99630
2017-07-30T13:55:47.820Z,99632
2017-07-30T13:58:16.055Z,99629
2017-07-30T14:00:45.121Z,99637
2017-07-30T14:03:13.340Z,99637
2017-07-30T14:05:41.566Z,99634
2017-07-30T14:08:09.860Z,99639
2017-07-30T14:10:38.082Z,99632
2017-07-30T14:13:09.789Z,99628
2017-07-30T14:15:38.021Z,99626
2017-07-30T14:18:06.234Z,99623
2017-07-30T14:20:34.534Z,99632
2017-07-30T14:23:02.788Z,99628
2017-07-30T14:28:30.933Z,99633
2017-07-30T14:30:59.205Z,99625
2017-07-30T14:33:27.501Z,99617
2017-07-30T14:35:55.815Z,99619
2017-07-30T14:38:24.075Z,99618
2017-07-30T14:40:52.313Z,99615
2017-07-30T14:43:20.570Z,99619
2017-07-30T14:45:49.583Z,99617
2017-07-30T14:48:17.824Z,99615
2017-07-30T14:50:46.090Z,99620
2017-07-30T14:53:14.327Z,99626
2017-07-30T14:56:09.076Z,99626
2017-07-30T14:58:38.080Z,99632
2017-07-30T15:01:06.342Z,99622
2017-07-30T15:03:34.617Z,99626
2017-07-30T15:06:03.612Z,99629
2017-07-30T15:08:31.913Z,99632
2017-07-30T15:11:00.150Z,99632
2017-07-30T15:13:28.398Z,99627
2017-07-30T15:15:56.955Z,99621
2017-07-30T15:18:25.231Z,99626
2017-07-30T15:24:07.200Z,99629
2017-07-30T15:26:35.418Z,99622
2017-07-30T15:29:03.664Z,99624
2017-07-30T15:31:32.706Z,99631
2017-07-30T15:34:00.942Z,99624
2017-07-30T15:36:29.194Z,99616
2017-07-30T15:38:57.547Z,99614
2017-07-30T15:41:25.821Z,99623
2017-07-30T15:43:54.057Z,99623
2017-07-30T15:46:22.357Z,99621
2017-07-30T15:49:10.027Z,99622
2017-07-30T15:52:07.323Z,99615
2017-07-30T15:54:35.542Z,99606
2017-07-30T15:57:03.794Z,99606
2017-07-30T15:59:32.036Z,99603
2017-07-30T16:02:00.276Z,99597
2017-07-30T16:04:28.563Z,99592
2017-07-30T16:06:56.820Z,99588
2017-07-30T16:09:25.072Z,99592
2017-07-30T16:11:53.331Z,99603
2017-07-30T16:14:21.596Z,99602
2017-07-30T16:17:09.046Z,99601
2017-07-30T16:20:07.364Z,99601
2017-07-30T16:22:35.581Z,99603
2017-07-30T16:25:03.858Z,99602
2017-07-30T16:27:32.094Z,99597
2017-07-30T16:30:00.319Z,99599
2017-07-30T16:32:28.622Z,99608
2017-07-30T16:34:56.855Z,99610
2017-07-30T16:37:25.081Z,99609
2017-07-30T16:39:53.423Z,99619
2017-07-30T16:42:21.717Z,99616
2017-07-30T16:45:09.534Z,99616
2017-07-30T16:48:07.586Z,99613
2017-07-30T16:50:35.880Z,99617
2017-07-30T16:53:04.140Z,99618
2017-07-30T16:55:32.425Z,99615
2017-07-30T16:58:00.727Z,99621
2017-07-30T17:00:28.967Z,99621
2017-07-30T17:03:10.589Z,99623
2017-07-30T17:05:38.839Z,99633
2017-07-30T17:08:08.040Z,99628
2017-07-30T17:10:36.345Z,99632
2017-07-30T17:13:21.465Z,99637
2017-07-30T17:16:08.894Z,99642
2017-07-30T17:18:38.108Z,99635
2017-07-30T17:21:08.016Z,99634
2017-07-30T17:23:36.299Z,99635
2017-07-30T17:26:04.547Z,99636
2017-07-30T17:28:32.777Z,99643
2017-07-30T17:31:01.034Z,99642
2017-07-30T17:33:29.611Z,99644
2017-07-30T17:35:57.912Z,99649
2017-07-30T17:38:26.146Z,99648
2017-07-30T17:44:08.428Z,99638
2017-07-30T17:46:36.737Z,99638
2017-07-30T17:49:04.958Z,99643
2017-07-30T17:51:33.191Z,99646
2017-07-30T17:54:01.501Z,99641
2017-07-30T17:59:31.226Z,99644
2017-07-30T18:01:59.521Z,99647
2017-07-30T18:04:27.766Z,99649
2017-07-30T18:06:56.018Z,99640
2017-07-30T18:09:24.554Z,99639
2017-07-30T18:12:08.065Z,99645
2017-07-30T18:14:36.376Z,99650
2017-07-30T18:17:04.615Z,99653
2017-07-30T18:19:32.861Z,99657
2017-07-30T18:22:01.157Z,99656
2017-07-30T18:24:29.404Z,99663
2017-07-30T18:26:57.651Z,99664
2017-07-30T18:29:26.740Z,99660
2017-07-30T18:31:54.994Z,99664
2017-07-30T18:34:23.238Z,99674
2017-07-30T18:39:52.355Z,99685
2017-07-30T18:42:20.657Z,99679
2017-07-30T18:44:48.883Z,99679
2017-07-30T18:47:17.101Z,99687
2017-07-30T18:49:45.384Z,99693
2017-07-30T18:52:13.707Z,99692
2017-07-30T18:55:07.560Z,99697
2017-07-30T18:57:36.634Z,99695
2017-07-30T19:00:05.609Z,99703
2017-07-30T19:02:33.846Z,99694
2017-07-30T19:08:02.925Z,99703
2017-07-30T19:10:31.180Z,99699
2017-07-30T19:12:59.415Z,99697
2017-07-30T19:15:27.688Z,99705
2017-07-30T19:17:55.942Z,99704
2017-07-30T19:20:24.986Z,99719
2017-07-30T19:22:53.269Z,99727
2017-07-30T19:25:21.609Z,99733
2017-07-30T19:27:49.835Z,99735
2017-07-30T19:30:18.050Z,99736
2017-07-30T19:32:47.115Z,99741
2017-07-30T19:35:15.342Z,99743
2017-07-30T19:37:43.591Z,99737
2017-07-30T19:40:11.898Z,99748
2017-07-30T19:42:40.149Z,99734
2017-07-30T19:45:08.412Z,99736
2017-07-30T19:47:37.479Z,99736
2017-07-30T19:50:08.578Z,99736
2017-07-30T19:52:36.889Z,99730
2017-07-30T19:55:05.139Z,99725
2017-07-30T19:57:33.389Z,99724
2017-07-30T20:00:01.680Z,99724
2017-07-30T20:02:29.922Z,99721
2017-07-30T20:04:58.492Z,99731
2017-07-30T20:07:26.791Z,99727
2017-07-30T20:09:56.714Z,99739
2017-07-30T20:12:24.952Z,99752
2017-07-30T20:14:53.397Z,99759
2017-07-30T20:17:21.632Z,99759
2017-07-30T20:19:50.640Z,99752
2017-07-30T20:22:18.935Z,99755
2017-07-30T20:24:47.174Z,99754
2017-07-30T20:27:15.430Z,99744
2017-07-30T20:30:09.350Z,99749
2017-07-30T20:33:08.085Z,99745
2017-07-30T20:35:36.380Z,99755
2017-07-30T20:38:04.631Z,99750
2017-07-30T20:40:32.883Z,99752
2017-07-30T20:43:08.963Z,99759
2017-07-30T20:45:37.202Z,99752
2017-07-30T20:48:05.442Z,99745
2017-07-30T20:50:33.697Z,99748
2017-07-30T20:53:01.919Z,99749
2017-07-30T20:55:30.145Z,99746
2017-07-30T20:57:58.419Z,99750
2017-07-30T21:03:26.605Z,99760
2017-07-30T21:05:54.854Z,99769
2017-07-30T21:08:24.853Z,99764
2017-07-30T21:10:53.123Z,99770
2017-07-30T21:13:22.122Z,99767
2017-07-30T21:15:50.358Z,99763
2017-07-30T21:18:18.640Z,99763
2017-07-30T21:20:46.861Z,99769
2017-07-30T21:23:15.102Z,99773
2017-07-30T21:25:44.155Z,99779
2017-07-30T21:28:12.381Z,99838
2017-07-30T21:30:41.372Z,99844
2017-07-30T21:33:10.400Z,99855
2017-07-30T21:35:38.626Z,99843
2017-07-30T21:38:07.626Z,99834
2017-07-30T21:40:36.698Z,99821
2017-07-30T21:43:04.931Z,99826
2017-07-30T21:45:33.158Z,99829
2017-07-30T21:48:01.422Z,99828
2017-07-30T21:50:29.642Z,99817
2017-07-30T21:53:10.362Z,99821
2017-07-30T21:55:38.597Z,99818
2017-07-30T21:58:06.813Z,99819
2017-07-30T22:00:35.061Z,99817
2017-07-30T22:03:03.301Z,99826
2017-07-30T22:05:31.556Z,99822
2017-07-30T22:08:08.884Z,99807
2017-07-30T22:11:07.704Z,99799
2017-07-30T22:13:36.179Z,99810
2017-07-30T22:16:04.412Z,99810
2017-07-30T22:18:33.402Z,99802
2017-07-30T22:21:08.734Z,99794
2017-07-30T22:23:37.733Z,99783
2017-07-30T22:26:05.967Z,99773
2017-07-30T22:28:34.228Z,99780
2017-07-30T22:31:09.512Z,99786
2017-07-30T22:33:38.564Z,99788
2017-07-30T22:36:10.082Z,99793
2017-07-30T22:38:38.319Z,99796
2017-07-30T22:41:06.592Z,99810
2017-07-30T22:43:34.825Z,99804
2017-07-30T22:46:03.042Z,99808
2017-07-30T22:51:31.900Z,99791
2017-07-30T22:54:00.131Z,99789
2017-07-30T22:56:29.126Z,99799
2017-07-30T22:58:58.163Z,99810
2017-07-30T23:04:29.797Z,99788
2017-07-30T23:06:58.791Z,99780
2017-07-30T23:09:27.795Z,99786
2017-07-30T23:11:56.822Z,99773
2017-07-30T23:14:25.060Z,99757
2017-07-30T23:17:08.701Z,99755
2017-07-30T23:22:16.898Z,99745
2017-07-30T23:25:08.655Z,99747
2017-07-30T23:27:36.902Z,99748
2017-07-30T23:30:05.147Z,99749
2017-07-30T23:32:33.361Z,99749
2017-07-30T23:35:02.598Z,99765
2017-07-30T23:37:30.819Z,99785
2017-07-30T23:40:11.380Z,99784
2017-07-30T23:42:39.617Z,99778
2017-07-30T23:45:09.251Z,99768
2017-07-30T23:47:37.510Z,99786
2017-07-30T23:50:05.735Z,99826
2017-07-30T23:52:34.736Z,99808
2017-07-30T23:55:09.954Z,99789
2017-07-30T23:57:38.173Z,99821
